createdAt,value
2023-04-15T00:03:39.890Z,98894.13
2023-04-15T00:07:48.278Z,98890.13
2023-04-15T00:11:56.076Z,98880.27
2023-04-15T00:16:04.146Z,98880.38
2023-04-15T00:20:13.005Z,98879.57
2023-04-15T00:24:20.501Z,98878.55
2023-04-15T00:28:28.556Z,98883.41
2023-04-15T00:32:37.170Z,98880.73
2023-04-15T00:36:44.639Z,98879.89
2023-04-15T00:40:52.581Z,98878.74
2023-04-15T00:45:00.695Z,98881.65
2023-04-15T00:49:08.765Z,98878.95
2023-04-15T00:53:17.323Z,98882.94
2023-04-15T00:57:26.110Z,98884.70
2023-04-15T01:01:35.288Z,98879.64
2023-04-15T01:05:43.228Z,98880.46
2023-04-15T01:09:51.481Z,98881.23
2023-04-15T01:14:00.341Z,98874.91
2023-04-15T01:18:08.784Z,98878.79
2023-04-15T01:22:16.289Z,98879.61
2023-04-15T01:26:25.012Z,98877.53
2023-04-15T01:30:36.896Z,98879.61
2023-04-15T01:34:45.263Z,98873.84
2023-04-15T01:38:53.984Z,98871.92
2023-04-15T01:43:04.377Z,98881.30
2023-04-15T01:47:12.479Z,98886.25
2023-04-15T01:51:21.398Z,98892.24
2023-04-15T01:55:29.194Z,98896.90
2023-04-15T01:59:37.722Z,98897.26
2023-04-15T02:03:46.673Z,98896.59
2023-04-15T02:07:55.850Z,98898.46
2023-04-15T02:12:03.496Z,98889.59
2023-04-15T02:16:20.121Z,98889.84
2023-04-15T02:20:28.509Z,98893.69
2023-04-15T02:24:36.932Z,98891.37
2023-04-15T02:28:44.961Z,98896.48
2023-04-15T02:32:52.880Z,98900.52
2023-04-15T02:37:02.391Z,98906.92
2023-04-15T02:41:11.012Z,98909.09
2023-04-15T02:45:21.289Z,98905.23
2023-04-15T02:49:31.247Z,98910.02
2023-04-15T02:53:38.706Z,98909.20
2023-04-15T02:57:46.844Z,98913.61
2023-04-15T03:01:55.818Z,98921.02
2023-04-15T03:06:04.021Z,98923.30
2023-04-15T03:10:13.374Z,98922.70
2023-04-15T03:14:20.826Z,98923.05
2023-04-15T03:18:29.744Z,98925.89
2023-04-15T03:22:39.445Z,98942.60
2023-04-15T03:26:47.610Z,98951.63
2023-04-15T03:30:55.975Z,98951.78
2023-04-15T03:35:04.000Z,98954.66
2023-04-15T03:39:12.040Z,98964.38
2023-04-15T03:43:21.851Z,98973.05
2023-04-15T03:47:30.416Z,98980.04
2023-04-15T03:51:38.353Z,98993.65
2023-04-15T03:55:46.988Z,99004.85
2023-04-15T03:59:54.702Z,99018.27
2023-04-15T04:04:02.927Z,99019.03
2023-04-15T04:08:13.792Z,99016.60
2023-04-15T04:12:21.533Z,99022.59
2023-04-15T04:16:29.543Z,99028.55
2023-04-15T04:20:39.990Z,99036.02
2023-04-15T04:24:47.563Z,99035.20
2023-04-15T04:28:55.249Z,99040.73
2023-04-15T04:33:03.508Z,99050.89
2023-04-15T04:37:14.589Z,99054.62
2023-04-15T04:41:22.358Z,99058.41
2023-04-15T04:45:30.709Z,99066.59
2023-04-15T04:49:38.593Z,99070.47
2023-04-15T04:53:46.498Z,99069.63
2023-04-15T04:57:54.290Z,99076.53
2023-04-15T05:02:05.126Z,99081.66
2023-04-15T05:06:13.857Z,99093.31
2023-04-15T05:10:22.108Z,99095.77
2023-04-15T05:14:29.937Z,99098.20
2023-04-15T05:18:38.077Z,99096.58
2023-04-15T05:22:46.131Z,99109.31
2023-04-15T05:26:54.238Z,99113.05
2023-04-15T05:31:02.443Z,99115.28
2023-04-15T05:35:12.317Z,99116.44
2023-04-15T05:39:19.864Z,99114.77
2023-04-15T05:43:28.317Z,99115.69
2023-04-15T05:47:36.075Z,99123.16
2023-04-15T05:51:44.019Z,99126.23
2023-04-15T05:55:52.358Z,99132.06
2023-04-15T06:00:00.371Z,99144.36
2023-04-15T06:04:08.106Z,99141.88
2023-04-15T06:08:16.407Z,99146.23
2023-04-15T06:12:24.957Z,99150.77
2023-04-15T06:16:32.576Z,99159.58
2023-04-15T06:20:45.853Z,99161.89
2023-04-15T06:24:54.028Z,99163.50
2023-04-15T06:29:02.165Z,99170.30
2023-04-15T06:33:12.003Z,99175.54
2023-04-15T06:37:20.476Z,99179.95
2023-04-15T06:41:28.191Z,99186.23
2023-04-15T06:45:36.572Z,99189.58
2023-04-15T06:49:45.373Z,99186.34
2023-04-15T06:53:53.378Z,99191.64
2023-04-15T06:58:02.291Z,99194.76
2023-04-15T07:02:13.991Z,99196.18
2023-04-15T07:06:22.512Z,99204.02
2023-04-15T07:10:31.288Z,99207.56
2023-04-15T07:14:39.929Z,99213.06
2023-04-15T07:18:48.526Z,99211.22
2023-04-15T07:22:56.547Z,99213.73
2023-04-15T07:27:04.294Z,99219.72
2023-04-15T07:31:12.425Z,99213.85
2023-04-15T07:35:21.578Z,99214.89
2023-04-15T07:39:29.978Z,99220.86
2023-04-15T07:43:37.963Z,99229.52
2023-04-15T07:47:46.463Z,99237.33
2023-04-15T07:51:54.501Z,99239.71
2023-04-15T07:56:03.638Z,99249.39
2023-04-15T08:00:15.233Z,99249.92
2023-04-15T08:04:23.325Z,99250.79
2023-04-15T08:08:31.638Z,99247.40
2023-04-15T08:12:39.065Z,99249.30
2023-04-15T08:16:48.105Z,99249.05
2023-04-15T08:20:56.647Z,99252.65
2023-04-15T08:25:04.803Z,99253.05
2023-04-15T08:29:13.294Z,99252.55
2023-04-15T08:33:22.357Z,99249.84
2023-04-15T08:37:29.943Z,99255.50
2023-04-15T08:41:46.870Z,99258.61
2023-04-15T08:45:56.105Z,99262.55
2023-04-15T08:50:08.069Z,99263.46
2023-04-15T08:54:16.678Z,99268.42
2023-04-15T08:58:24.730Z,99276.48
2023-04-15T09:02:33.192Z,99280.16
2023-04-15T09:06:43.191Z,99285.91
2023-04-15T09:10:51.420Z,99287.83
2023-04-15T09:15:00.109Z,99288.11
2023-04-15T09:19:24.631Z,99291.75
2023-04-15T09:23:33.658Z,99291.14
2023-04-15T09:27:41.643Z,99288.05
2023-04-15T09:31:49.152Z,99279.63
2023-04-15T09:36:04.957Z,99282.68
2023-04-15T09:40:14.949Z,99284.08
2023-04-15T09:44:29.868Z,99288.48
2023-04-15T09:48:37.996Z,99291.59
2023-04-15T09:52:46.847Z,99292.62
2023-04-15T09:56:54.346Z,99295.77
2023-04-15T10:01:04.535Z,99296.92
2023-04-15T10:05:15.566Z,99303.98
2023-04-15T10:09:23.878Z,99306.52
2023-04-15T10:13:36.337Z,99312.06
2023-04-15T10:17:47.634Z,99314.19
2023-04-15T10:21:55.394Z,99311.83
2023-04-15T10:26:05.127Z,99316.70
2023-04-15T10:30:14.567Z,99318.30
2023-04-15T10:34:24.284Z,99315.85
2023-04-15T10:38:40.223Z,99309.52
2023-04-15T10:42:48.847Z,99312.08
2023-04-15T10:46:57.694Z,99317.58
2023-04-15T10:51:05.869Z,99319.72
2023-04-15T10:55:20.834Z,99319.47
2023-04-15T10:59:28.768Z,99321.33
2023-04-15T11:03:42.341Z,99321.64
2023-04-15T11:07:57.080Z,99322.77
2023-04-15T11:12:12.354Z,99328.80
2023-04-15T11:16:21.693Z,99333.23
2023-04-15T11:20:30.246Z,99335.93
2023-04-15T11:24:37.838Z,99342.60
2023-04-15T11:28:47.489Z,99350.05
2023-04-15T11:32:58.271Z,99350.36
2023-04-15T11:37:09.015Z,99356.02
2023-04-15T11:41:16.851Z,99354.77
2023-04-15T11:45:24.847Z,99358.69
2023-04-15T11:49:35.216Z,99362.45
2023-04-15T11:53:46.284Z,99358.89
2023-04-15T11:58:09.920Z,99356.39
2023-04-15T12:02:18.464Z,99355.66
2023-04-15T12:06:28.100Z,99356.06
2023-04-15T12:10:36.625Z,99358.86
2023-04-15T12:14:45.124Z,99366.36
2023-04-15T12:18:56.141Z,99366.61
2023-04-15T12:23:10.515Z,99364.43
2023-04-15T12:27:21.426Z,99375.20
2023-04-15T12:31:31.544Z,99376.14
2023-04-15T12:35:40.085Z,99373.30
2023-04-15T12:39:50.268Z,99378.27
2023-04-15T12:43:58.331Z,99379.19
2023-04-15T12:48:06.751Z,99378.92
2023-04-15T12:52:15.331Z,99379.57
2023-04-15T12:56:24.227Z,99380.73
2023-04-15T13:00:31.752Z,99379.68
2023-04-15T13:04:40.757Z,99380.90
2023-04-15T13:08:57.914Z,99379.77
2023-04-15T13:13:07.302Z,99379.32
2023-04-15T13:17:19.021Z,99384.39
2023-04-15T13:21:27.434Z,99391.13
2023-04-15T13:25:35.448Z,99396.16
2023-04-15T13:29:43.259Z,99400.45
2023-04-15T13:33:51.792Z,99398.00
2023-04-15T13:37:59.704Z,99395.87
2023-04-15T13:42:08.060Z,99398.00
2023-04-15T13:46:16.931Z,99394.72
2023-04-15T13:50:24.520Z,99393.64
2023-04-15T13:54:37.024Z,99398.89
2023-04-15T13:58:46.326Z,99396.91
2023-04-15T14:02:56.695Z,99400.84
2023-04-15T14:07:05.547Z,99398.50
2023-04-15T14:11:13.613Z,99402.17
2023-04-15T14:15:21.783Z,99403.37
2023-04-15T14:19:31.601Z,99406.04
2023-04-15T14:23:39.957Z,99401.98
2023-04-15T14:27:47.609Z,99409.36
2023-04-15T14:32:11.197Z,99415.61
2023-04-15T14:36:20.942Z,99417.34
2023-04-15T14:40:29.270Z,99416.35
2023-04-15T14:44:36.786Z,99419.70
2023-04-15T14:48:44.816Z,99426.99
2023-04-15T14:52:52.909Z,99428.72
2023-04-15T14:57:02.973Z,99438.59
2023-04-15T15:01:11.538Z,99441.97
2023-04-15T15:05:20.012Z,99443.73
2023-04-15T15:09:29.443Z,99443.02
2023-04-15T15:13:37.838Z,99446.70
2023-04-15T15:17:46.223Z,99454.80
2023-04-15T15:21:55.197Z,99459.11
2023-04-15T15:26:03.825Z,99461.72
2023-04-15T15:30:14.758Z,99467.82
2023-04-15T15:34:22.642Z,99467.52
2023-04-15T15:38:31.357Z,99469.40
2023-04-15T15:42:39.980Z,99468.56
2023-04-15T15:46:47.824Z,99470.98
2023-04-15T15:50:55.796Z,99475.58
2023-04-15T15:55:03.386Z,99484.34
2023-04-15T15:59:11.292Z,99486.95
2023-04-15T16:03:20.044Z,99483.81
2023-04-15T16:07:28.609Z,99487.96
2023-04-15T16:11:37.584Z,99492.80
2023-04-15T16:15:46.200Z,99497.25
2023-04-15T16:19:57.681Z,99498.98
2023-04-15T16:24:08.879Z,99506.52
2023-04-15T16:28:26.273Z,99508.48
2023-04-15T16:32:35.343Z,99508.06
2023-04-15T16:36:43.057Z,99514.14
2023-04-15T16:40:52.523Z,99518.00
2023-04-15T16:45:00.798Z,99527.56
2023-04-15T16:49:08.997Z,99534.71
2023-04-15T16:53:17.704Z,99544.36
2023-04-15T16:57:27.251Z,99547.94
2023-04-15T17:01:53.983Z,99553.58
2023-04-15T17:06:03.842Z,99555.36
2023-04-15T17:10:14.615Z,99556.98
2023-04-15T17:14:22.803Z,99564.39
2023-04-15T17:18:31.217Z,99573.42
2023-04-15T17:22:38.951Z,99577.80
2023-04-15T17:26:50.283Z,99586.98
2023-04-15T17:31:03.082Z,99590.42
2023-04-15T17:35:14.172Z,99594.76
2023-04-15T17:39:23.044Z,99602.35
2023-04-15T17:43:30.913Z,99606.23
2023-04-15T17:47:39.428Z,99613.00
2023-04-15T17:51:47.552Z,99621.86
2023-04-15T17:55:56.196Z,99632.65
2023-04-15T18:00:04.933Z,99636.13
2023-04-15T18:04:14.859Z,99643.60
2023-04-15T18:08:22.853Z,99654.98
2023-04-15T18:12:30.797Z,99667.42
2023-04-15T18:16:40.550Z,99678.42
2023-04-15T18:20:48.933Z,99686.17
2023-04-15T18:24:59.407Z,99690.64
2023-04-15T18:29:08.075Z,99692.06
2023-04-15T18:33:16.558Z,99696.40
2023-04-15T18:37:24.894Z,99701.25
2023-04-15T18:41:33.438Z,99705.96
2023-04-15T18:45:41.474Z,99710.88
2023-04-15T18:49:49.586Z,99722.50
2023-04-15T18:53:58.068Z,99722.86
2023-04-15T18:58:08.733Z,99724.05
2023-04-15T19:02:17.719Z,99730.04
2023-04-15T19:06:28.830Z,99735.29
2023-04-15T19:10:37.433Z,99736.83
2023-04-15T19:14:44.821Z,99745.17
2023-04-15T19:18:53.181Z,99747.69
2023-04-15T19:23:03.396Z,99752.76
2023-04-15T19:27:12.229Z,99753.91
2023-04-15T19:31:20.938Z,99756.46
2023-04-15T19:35:29.953Z,99760.73
2023-04-15T19:39:37.714Z,99763.87
2023-04-15T19:43:45.575Z,99763.45
2023-04-15T19:47:56.254Z,99771.08
2023-04-15T19:52:06.179Z,99771.48
2023-04-15T19:56:14.461Z,99776.31
2023-04-15T20:00:23.733Z,99781.98
2023-04-15T20:04:32.088Z,99787.96
2023-04-15T20:08:40.986Z,99795.40
2023-04-15T20:12:52.618Z,99798.32
2023-04-15T20:17:02.518Z,99797.04
2023-04-15T20:21:11.456Z,99804.18
2023-04-15T20:25:20.044Z,99806.86
2023-04-15T20:29:27.915Z,99812.16
2023-04-15T20:33:36.504Z,99815.52
2023-04-15T20:37:46.562Z,99824.03
2023-04-15T20:41:55.513Z,99824.04
2023-04-15T20:46:10.158Z,99827.71
2023-04-15T20:50:28.986Z,99834.13
2023-04-15T20:54:37.109Z,99830.65
2023-04-15T20:58:45.099Z,99836.02
2023-04-15T21:02:53.037Z,99837.95
2023-04-15T21:07:01.705Z,99840.85
2023-04-15T21:11:09.534Z,99846.39
2023-04-15T21:15:23.396Z,99847.85
2023-04-15T21:19:34.716Z,99851.83
2023-04-15T21:23:43.266Z,99853.99
2023-04-15T21:27:51.175Z,99861.60
2023-04-15T21:31:59.264Z,99860.67
2023-04-15T21:36:07.876Z,99862.30
2023-04-15T21:40:18.530Z,99866.97
2023-04-15T21:44:26.316Z,99879.02
2023-04-15T21:48:34.965Z,99881.80
2023-04-15T21:52:43.309Z,99884.42
2023-04-15T21:56:52.217Z,99890.70
2023-04-15T22:01:00.647Z,99893.96
2023-04-15T22:05:09.576Z,99894.80
2023-04-15T22:09:17.964Z,99902.97
2023-04-15T22:13:26.515Z,99911.34
2023-04-15T22:17:34.486Z,99924.09
2023-04-15T22:21:43.431Z,99929.84
2023-04-15T22:25:51.496Z,99930.95
2023-04-15T22:30:00.121Z,99929.43
2023-04-15T22:34:08.641Z,99928.13
2023-04-15T22:38:16.592Z,99928.23
2023-04-15T22:42:25.225Z,99924.61
2023-04-15T22:46:33.057Z,99923.61
2023-04-15T22:50:41.822Z,99928.14
2023-04-15T22:54:49.201Z,99931.52
2023-04-15T22:58:57.384Z,99936.58
2023-04-15T23:03:05.800Z,99945.48
2023-04-15T23:07:15.815Z,99952.95
2023-04-15T23:11:23.491Z,99961.30
2023-04-15T23:15:31.340Z,99963.92
2023-04-15T23:19:39.542Z,99963.29
2023-04-15T23:23:47.333Z,99970.40
2023-04-15T23:27:55.162Z,99970.19
2023-04-15T23:32:03.797Z,99968.96
2023-04-15T23:36:12.189Z,99966.19
2023-04-15T23:40:20.214Z,99969.69
2023-04-15T23:44:28.383Z,99967.42
2023-04-15T23:48:36.477Z,99967.14
2023-04-15T23:52:45.172Z,99971.75
2023-04-15T23:56:53.687Z,99969.84
